Time;durP1;ratioP1;P1;durP2;ratioP2;P2;SDS_P1;SDS_P2;PMS_P1;PMS_P2;Temp;Humidity;BMP_temperature;BMP_pressure;BME280_temperature;BME280_humidity;BME280_pressure;Samples;Min_cycle;Max_cycle;Signal;HPM_P1;HPM_P2
2022/01/18 00:01:18;;;;;;;13.30;10.80;;;;;;;1.44;84.23;101500.84;4910501;29;20222;-81
2022/01/18 00:03:43;;;;;;;15.03;10.60;;;;;;;1.39;84.37;101515.50;4907083;29;20259;-79
2022/01/18 00:06:09;;;;;;;10.67;8.73;;;;;;;1.36;84.16;101520.69;4911725;29;20535;-81
2022/01/18 00:08:34;;;;;;;17.60;10.33;;;;;;;1.30;84.15;101511.16;4910947;29;20212;-79
2022/01/18 00:11:00;;;;;;;14.40;10.90;;;;;;;1.27;84.31;101514.59;4912731;29;20225;-79
2022/01/18 00:13:46;;;;;;;13.40;11.47;;;;;;;1.24;84.59;101508.50;4914487;29;20202;-81
2022/01/18 00:18:51;;;;;;;16.73;11.15;;;;;;;1.20;84.47;101491.25;4910620;29;20225;-78
2022/01/18 00:21:32;;;;;;;16.10;9.80;;;;;;;1.20;84.41;101494.69;4911513;29;20290;-78
2022/01/18 00:23:59;;;;;;;11.18;9.13;;;;;;;1.18;84.57;101491.22;4914796;29;20226;-79
2022/01/18 00:26:28;;;;;;;14.00;10.35;;;;;;;1.15;84.42;101493.81;4910008;29;20238;-79
2022/01/18 00:28:59;;;;;;;14.48;11.13;;;;;;;1.06;84.31;101493.78;4912802;29;20203;-79
2022/01/18 00:34:32;;;;;;;8.85;7.75;;;;;;;0.97;84.38;101481.63;4888007;29;20251;-82
2022/01/18 00:39:33;;;;;;;13.00;11.63;;;;;;;0.91;84.36;101481.59;4912631;29;20738;-79
2022/01/18 00:41:59;;;;;;;15.23;10.50;;;;;;;0.84;84.63;101495.38;4913525;29;20665;-78
2022/01/18 00:44:25;;;;;;;13.50;9.90;;;;;;;0.76;84.60;101495.31;4913270;29;20205;-78
2022/01/18 00:46:50;;;;;;;13.57;10.47;;;;;;;0.74;84.64;101481.50;4911688;29;20726;-79
2022/01/18 00:49:16;;;;;;;17.10;11.03;;;;;;;0.75;84.92;101485.78;4909368;29;20233;-80
2022/01/18 00:51:44;;;;;;;15.73;11.97;;;;;;;0.72;85.14;101488.38;4913311;29;20505;-79
2022/01/18 00:54:21;;;;;;;11.02;9.68;;;;;;;0.70;85.00;101492.66;4909504;29;20875;-82
2022/01/18 00:56:48;;;;;;;11.23;10.13;;;;;;;0.69;85.23;101482.31;4912609;29;20582;-78
2022/01/18 00:59:13;;;;;;;12.60;9.65;;;;;;;0.69;85.12;101480.59;4909228;29;20210;-78
2022/01/18 01:01:39;;;;;;;9.87;8.93;;;;;;;0.69;85.08;101477.16;4908193;29;20245;-78
2022/01/18 01:04:05;;;;;;;9.97;8.80;;;;;;;0.69;85.17;101482.31;4911121;29;20214;-78
2022/01/18 01:06:32;;;;;;;14.68;10.82;;;;;;;0.72;85.12;101492.69;4922480;29;20218;-81
2022/01/18 01:08:57;;;;;;;16.02;11.80;;;;;;;0.73;84.92;101489.22;4936467;29;20214;-78
2022/01/18 01:11:24;;;;;;;12.33;10.27;;;;;;;0.76;85.06;101484.97;4915735;29;20294;-79
2022/01/18 01:13:52;;;;;;;14.00;11.48;;;;;;;0.81;85.06;101480.69;4912918;29;20199;-79
2022/01/18 01:45:24;;;;;;;13.30;9.82;;;;;;;0.98;85.14;101498.03;5026876;28;20214;-76
2022/01/18 01:47:50;;;;;;;14.32;10.68;;;;;;;0.97;85.17;101491.97;5024035;28;20261;-78
2022/01/18 01:50:19;;;;;;;12.18;9.73;;;;;;;0.98;85.32;101485.97;5021512;28;20198;-76
2022/01/18 01:52:45;;;;;;;13.55;10.60;;;;;;;1.01;85.42;101495.47;5028092;28;20277;-78
2022/01/18 01:55:11;;;;;;;11.07;8.98;;;;;;;1.04;85.27;101501.50;5020245;28;20544;-78
2022/01/18 01:57:37;;;;;;;12.60;9.50;;;;;;;1.08;85.22;101492.91;5025171;28;20229;-76
2022/01/18 02:00:09;;;;;;;12.60;8.43;;;;;;;1.13;85.31;101494.66;4999177;28;20199;-76
2022/01/18 02:02:35;;;;;;;10.57;9.52;;;;;;;1.15;85.07;101498.97;5023720;28;20472;-79
2022/01/18 02:05:01;;;;;;;10.47;8.37;;;;;;;1.17;85.26;101496.41;5025913;28;20552;-76
2022/01/18 02:07:26;;;;;;;10.10;8.43;;;;;;;1.17;85.61;101499.00;5028727;28;20275;-76
2022/01/18 02:09:51;;;;;;;12.63;9.40;;;;;;;1.19;85.30;101484.31;5026045;28;20210;-78
2022/01/18 02:12:18;;;;;;;10.30;8.47;;;;;;;1.20;85.72;101475.72;5025226;28;20206;-81
2022/01/18 02:14:48;;;;;;;11.95;9.68;;;;;;;1.19;85.71;101469.69;5024748;28;20302;-77
2022/01/18 02:22:46;;;;;;;10.38;8.25;;;;;;;1.26;85.55;101457.63;5023899;28;20221;-77
2022/01/18 02:25:11;;;;;;;10.10;8.40;;;;;;;1.26;85.49;101453.31;5027203;28;20214;-76
2022/01/18 02:27:37;;;;;;;9.80;8.27;;;;;;;1.28;85.38;101450.72;5026542;28;20226;-76
2022/01/18 02:30:03;;;;;;;11.60;8.50;;;;;;;1.27;85.76;101452.47;5025672;28;20214;-78
2022/01/18 02:32:28;;;;;;;12.20;9.20;;;;;;;1.26;85.77;101466.25;5027493;28;20255;-77
2022/01/18 02:34:54;;;;;;;12.67;8.60;;;;;;;1.25;85.80;101468.84;5026193;28;20279;-81
2022/01/18 02:37:19;;;;;;;11.57;8.50;;;;;;;1.26;85.89;101462.81;5024899;28;20889;-77
2022/01/18 02:39:44;;;;;;;11.07;8.90;;;;;;;1.25;85.83;101468.84;5007698;28;20202;-75
2022/01/18 02:42:11;;;;;;;9.53;8.00;;;;;;;1.21;86.17;101470.53;5025675;28;20889;-77
2022/01/18 02:44:37;;;;;;;9.43;8.48;;;;;;;1.19;86.06;101467.09;5026464;28;20218;-75
2022/01/18 02:47:03;;;;;;;13.37;8.80;;;;;;;1.17;86.06;101470.53;5023930;28;20218;-75
2022/01/18 02:49:29;;;;;;;15.00;8.55;;;;;;;1.16;86.33;101471.38;5026126;28;20284;-76
2022/01/18 02:51:56;;;;;;;11.97;9.40;;;;;;;1.17;86.21;101465.34;5026795;28;20198;-74
2022/01/18 02:54:21;;;;;;;12.57;9.48;;;;;;;1.21;86.09;101473.13;4998059;28;20218;-77
2022/01/18 02:56:56;;;;;;;10.87;9.53;;;;;;;1.26;86.12;101479.19;5024237;28;20221;-76
2022/01/18 02:59:34;;;;;;;14.40;10.57;;;;;;;1.31;85.91;101479.22;5022783;28;20297;-75
2022/01/18 03:04:47;;;;;;;8.85;7.95;;;;;;;1.37;85.87;101474.06;5024330;28;20206;-74
2022/01/18 03:07:13;;;;;;;11.45;7.80;;;;;;;1.36;86.05;101467.16;5021354;28;20254;-74
2022/01/18 03:09:39;;;;;;;11.98;9.25;;;;;;;1.36;86.03;101476.66;5026243;28;20281;-76
2022/01/18 03:12:06;;;;;;;11.33;9.47;;;;;;;1.34;85.87;101476.63;5026028;28;20642;-77
2022/01/18 03:14:32;;;;;;;14.80;10.38;;;;;;;1.36;85.76;101474.94;5021819;28;20202;-76
2022/01/18 03:16:58;;;;;;;10.88;8.75;;;;;;;1.37;86.11;101468.03;5021730;28;20231;-75
2022/01/18 03:19:24;;;;;;;9.03;8.17;;;;;;;1.40;86.26;101478.38;5018911;28;20570;-75
2022/01/18 03:21:50;;;;;;;14.90;8.97;;;;;;;1.44;85.93;101475.81;5025858;28;20589;-75
2022/01/18 03:24:44;;;;;;;11.07;8.60;;;;;;;1.47;85.95;101474.97;5024869;28;20283;-77
2022/01/18 03:29:48;;;;;;;14.95;8.45;;;;;;;1.47;85.75;101465.47;5023580;28;20251;-78
2022/01/18 03:32:14;;;;;;;13.63;11.63;;;;;;;1.59;86.11;101468.97;5006572;28;20476;-76
2022/01/18 03:34:39;;;;;;;11.83;9.67;;;;;;;1.61;86.06;101462.06;5026022;28;20460;-78
2022/01/18 03:37:05;;;;;;;12.23;9.30;;;;;;;1.60;85.85;101455.16;5020970;28;20285;-75
2022/01/18 03:39:30;;;;;;;9.73;8.67;;;;;;;1.58;86.11;101449.13;5021147;28;20206;-75
2022/01/18 03:42:10;;;;;;;11.27;9.03;;;;;;;1.58;85.85;101449.13;5028524;28;20233;-76
2022/01/18 03:44:35;;;;;;;10.93;9.55;;;;;;;1.55;86.46;101445.66;5029728;28;20767;-76
2022/01/18 03:47:01;;;;;;;10.63;8.70;;;;;;;1.55;86.48;101450.81;5008648;28;20753;-74
2022/01/18 03:49:27;;;;;;;11.52;8.43;;;;;;;1.56;86.30;101449.09;5028373;28;20210;-77
2022/01/18 03:51:53;;;;;;;13.00;9.23;;;;;;;1.57;86.05;101443.06;5030413;28;20903;-74
2022/01/18 03:54:23;;;;;;;11.93;10.17;;;;;;;1.60;86.35;101457.75;5028661;28;20710;-74
2022/01/18 03:56:49;;;;;;;12.98;8.40;;;;;;;1.60;86.17;101453.44;5011039;28;20222;-77
2022/01/18 03:59:14;;;;;;;11.15;8.00;;;;;;;1.61;86.41;101451.69;5003382;28;20715;-77
2022/01/18 04:01:43;;;;;;;12.03;8.70;;;;;;;1.60;86.48;101457.75;5011270;28;20241;-74
2022/01/18 04:04:08;;;;;;;10.98;8.23;;;;;;;1.60;86.47;101462.94;5026909;28;20214;-77
2022/01/18 04:06:33;;;;;;;12.20;7.70;;;;;;;1.58;86.66;101457.75;5025509;28;20237;-75
2022/01/18 04:09:03;;;;;;;11.97;9.10;;;;;;;1.57;87.19;101452.53;5025970;28;20267;-75
2022/01/18 04:11:29;;;;;;;12.95;9.40;;;;;;;1.57;87.25;101452.53;5016584;28;20230;-80
2022/01/18 04:13:54;;;;;;;10.60;9.50;;;;;;;1.58;86.94;101446.53;5027548;28;20237;-77
2022/01/18 04:16:19;;;;;;;12.97;9.60;;;;;;;1.57;87.60;101439.59;5010225;28;20301;-76
2022/01/18 04:18:53;;;;;;;10.63;8.17;;;;;;;1.60;87.48;101434.44;5023990;28;20728;-75
2022/01/18 04:26:57;;;;;;;12.35;10.27;;;;;;;1.63;87.50;101434.44;5024144;28;20257;-76
2022/01/18 04:29:23;;;;;;;11.73;9.68;;;;;;;1.62;87.45;101436.19;5027068;28;20217;-75
2022/01/18 04:31:49;;;;;;;13.85;10.38;;;;;;;1.63;87.63;101440.50;5021905;28;20206;-75
2022/01/18 04:34:14;;;;;;;17.57;10.10;;;;;;;1.61;87.71;101438.75;5027555;28;20564;-74
2022/01/18 04:36:40;;;;;;;14.23;10.73;;;;;;;1.61;87.36;101436.16;5026404;28;20267;-75
2022/01/18 04:39:05;;;;;;;14.50;11.27;;;;;;;1.62;87.62;101437.88;5023966;28;20202;-75
2022/01/18 04:41:31;;;;;;;19.17;13.57;;;;;;;1.59;87.35;101449.09;5027645;28;20803;-77
2022/01/18 04:49:12;;;;;;;14.60;11.30;;;;;;;1.59;87.49;101448.25;5029111;28;20256;-74
2022/01/18 04:51:38;;;;;;;14.57;11.70;;;;;;;1.59;87.65;101443.06;5025046;28;20686;-74
2022/01/18 04:54:07;;;;;;;11.80;10.60;;;;;;;1.56;87.53;101446.50;5025010;28;20271;-76
2022/01/18 04:59:00;;;;;;;15.63;11.23;;;;;;;1.50;87.51;101436.13;5023971;28;20225;-75
2022/01/18 05:01:26;;;;;;;15.50;11.40;;;;;;;1.50;87.83;101434.41;5024890;28;20515;-74
2022/01/18 05:03:51;;;;;;;17.10;12.37;;;;;;;1.49;87.88;101434.41;5009404;28;20202;-74
2022/01/18 05:06:18;;;;;;;14.27;10.13;;;;;;;1.46;87.67;101443.03;5027419;28;20503;-74
2022/01/18 05:08:44;;;;;;;14.18;10.45;;;;;;;1.41;87.32;101439.56;5025062;28;20298;-78
2022/01/18 05:11:14;;;;;;;22.00;13.37;;;;;;;1.38;87.60;101454.19;5026335;28;20289;-74
2022/01/18 05:14:00;;;;;;;13.43;11.38;;;;;;;1.35;87.51;101451.59;5028281;28;20293;-74
2022/01/18 05:22:56;;;;;;;14.05;10.90;;;;;;;1.26;87.56;101449.84;5024953;28;20574;-75
2022/01/18 05:24:24;;;;;;;14.73;11.40;;;;;;;1.22;87.49;101443.81;5025012;28;20269;-74
2022/01/18 05:26:50;;;;;;;14.38;11.13;;;;;;;1.20;87.54;101448.09;5024749;28;20218;-75
2022/01/18 05:29:15;;;;;;;14.10;10.20;;;;;;;1.17;87.54;101436.88;5024439;28;20217;-74
2022/01/18 05:31:42;;;;;;;19.97;13.27;;;;;;;1.13;87.47;101443.75;5026323;28;20226;-74
2022/01/18 05:34:07;;;;;;;17.05;13.70;;;;;;;1.13;87.80;101448.94;5026558;28;20472;-74
2022/01/18 05:36:33;;;;;;;31.17;15.87;;;;;;;1.11;89.42;101442.91;5024365;28;20225;-75
2022/01/18 05:38:58;;;;;;;22.50;15.77;;;;;;;1.14;89.10;101444.63;5025400;28;20670;-74
2022/01/18 05:41:25;;;;;;;21.23;14.23;;;;;;;1.16;88.97;101442.91;5027615;28;20214;-78
2022/01/18 05:43:50;;;;;;;20.75;15.60;;;;;;;1.16;89.07;101446.38;5023474;28;20227;-78
2022/01/18 05:46:16;;;;;;;21.80;15.10;;;;;;;1.14;88.79;101436.88;5024304;28;20347;-73
2022/01/18 05:48:42;;;;;;;18.50;14.23;;;;;;;1.14;88.88;101437.72;5022976;28;20202;-72
2022/01/18 05:51:07;;;;;;;23.70;15.77;;;;;;;1.16;89.10;101437.72;5005898;28;20570;-78
2022/01/18 05:53:39;;;;;;;30.13;15.97;;;;;;;1.17;89.42;101435.16;5020482;28;20194;-75
2022/01/18 05:56:06;;;;;;;40.45;20.33;;;;;;;1.21;89.33;101441.19;5024493;28;20700;-75
2022/01/18 05:58:32;;;;;;;42.10;18.60;;;;;;;1.25;89.43;101445.56;5022823;28;20942;-77
2022/01/18 06:00:57;;;;;;;44.77;19.53;;;;;;;1.28;89.70;101440.38;5008048;28;20481;-75
2022/01/18 06:03:29;;;;;;;40.83;19.53;;;;;;;1.31;89.93;101446.41;5027514;28;20558;-78
2022/01/18 06:08:41;;;;;;;31.60;17.45;;;;;;;1.37;89.99;101443.00;5021503;28;20201;-77
2022/01/18 06:11:07;;;;;;;41.25;17.48;;;;;;;1.40;89.60;101458.53;5027710;28;20265;-74
2022/01/18 06:13:33;;;;;;;109.77;28.23;;;;;;;1.41;89.69;101449.91;5024350;28;20206;-75
2022/01/18 06:15:58;;;;;;;83.50;23.00;;;;;;;1.43;89.90;101443.03;5025695;28;20213;-77
2022/01/18 06:18:24;;;;;;;107.80;27.77;;;;;;;1.44;89.96;101447.34;5025675;28;20520;-78
2022/01/18 06:20:49;;;;;;;87.07;27.93;;;;;;;1.46;90.61;101444.75;5025398;28;20965;-75
2022/01/18 06:23:15;;;;;;;103.00;27.80;;;;;;;1.46;90.94;101440.44;5008525;28;20230;-74
2022/01/18 06:25:41;;;;;;;93.20;24.30;;;;;;;1.49;90.93;101450.81;5026163;28;20210;-75
2022/01/18 06:28:08;;;;;;;114.53;28.70;;;;;;;1.49;91.50;101445.63;5024254;28;20626;-75
2022/01/18 06:30:33;;;;;;;67.53;25.23;;;;;;;1.50;91.72;101455.13;5027059;28;20208;-75
2022/01/18 06:32:59;;;;;;;55.33;21.90;;;;;;;1.51;91.94;101461.16;5026793;28;20298;-75
2022/01/18 06:35:24;;;;;;;83.67;25.27;;;;;;;1.48;92.21;101462.00;5023935;28;20229;-74
2022/01/18 06:37:50;;;;;;;106.90;29.67;;;;;;;1.50;91.97;101456.84;5023191;28;20905;-74
2022/01/18 06:40:16;;;;;;;44.60;21.83;;;;;;;1.53;91.94;101470.66;5023506;28;20582;-77
2022/01/18 06:42:42;;;;;;;30.02;19.95;;;;;;;1.53;91.88;101468.06;5025562;28;20221;-74
2022/01/18 06:45:09;;;;;;;39.33;19.50;;;;;;;1.57;91.96;101473.25;5025985;28;20214;-74
2022/01/18 06:47:35;;;;;;;70.18;25.65;;;;;;;1.59;91.67;101476.72;5024541;28;20491;-76
2022/01/18 06:50:00;;;;;;;43.60;22.50;;;;;;;1.61;91.80;101478.47;5020819;28;20309;-76
2022/01/18 06:52:26;;;;;;;33.90;17.97;;;;;;;1.61;91.78;101477.59;5024754;28;20445;-75
2022/01/18 06:54:51;;;;;;;26.80;17.70;;;;;;;1.60;91.70;101476.75;5025017;28;20569;-74
2022/01/18 06:57:17;;;;;;;40.17;18.30;;;;;;;1.61;91.89;101464.66;5024796;28;20237;-76
2022/01/18 06:59:42;;;;;;;22.90;16.83;;;;;;;1.61;91.77;101469.84;5025367;28;20198;-77
2022/01/18 07:02:08;;;;;;;22.13;16.87;;;;;;;1.60;91.65;101461.22;5022227;28;20499;-75
2022/01/18 07:04:34;;;;;;;21.43;16.27;;;;;;;1.62;91.67;101462.09;5026611;28;20225;-75
2022/01/18 07:06:59;;;;;;;36.80;16.17;;;;;;;1.63;91.45;101461.22;5023032;28;20218;-78
2022/01/18 07:09:25;;;;;;;21.63;14.67;;;;;;;1.64;91.46;101462.06;5021234;28;20477;-76
2022/01/18 07:11:56;;;;;;;31.73;16.05;;;;;;;1.63;91.43;101462.94;5023192;28;20919;-75
2022/01/18 07:14:21;;;;;;;55.80;17.55;;;;;;;1.64;91.40;101460.34;5021726;28;20201;-75
2022/01/18 07:16:47;;;;;;;20.70;15.70;;;;;;;1.65;91.21;101467.28;5031972;23;20234;-77
2022/01/18 07:19:12;;;;;;;27.97;15.80;;;;;;;1.65;91.58;101469.84;4978657;28;20206;-77
2022/01/18 07:21:38;;;;;;;21.10;14.73;;;;;;;1.68;91.50;101476.78;4990861;28;20226;-77
2022/01/18 07:24:06;;;;;;;21.97;14.97;;;;;;;1.69;91.31;101470.72;4986609;28;20219;-77
2022/01/18 07:26:32;;;;;;;22.75;16.70;;;;;;;1.69;91.16;101463.81;4990909;28;20233;-77
2022/01/18 07:28:59;;;;;;;22.40;15.32;;;;;;;1.72;91.19;101468.13;5008365;28;20297;-77
2022/01/18 07:31:25;;;;;;;32.22;17.48;;;;;;;1.72;91.68;101471.59;5009473;28;20229;-77
2022/01/18 07:33:50;;;;;;;40.45;18.10;;;;;;;1.74;91.40;101475.06;5006514;28;20198;-77
2022/01/18 07:36:16;;;;;;;24.03;15.57;;;;;;;1.72;91.26;101474.19;5012200;28;20296;-77
2022/01/18 07:38:41;;;;;;;38.97;18.40;;;;;;;1.72;91.16;101478.50;5013204;28;20248;-77
2022/01/18 07:41:07;;;;;;;34.73;19.27;;;;;;;1.73;91.15;101468.16;5004456;28;20234;-77
2022/01/18 07:43:32;;;;;;;36.33;19.23;;;;;;;1.74;91.38;101471.59;5006776;28;20734;-77
2022/01/18 07:45:57;;;;;;;29.03;21.07;;;;;;;1.75;91.08;101469.00;5011168;28;20203;-77
2022/01/18 07:48:24;;;;;;;35.63;22.50;;;;;;;1.78;91.15;101468.13;5001801;28;20896;-77
2022/01/18 07:50:53;;;;;;;37.92;23.52;;;;;;;1.80;91.17;101470.75;5007606;28;20210;-77
2022/01/18 07:53:20;;;;;;;38.40;22.83;;;;;;;1.81;90.89;101475.94;5007523;28;20203;-77
2022/01/18 07:55:47;;;;;;;43.10;24.20;;;;;;;1.83;90.85;101479.38;5007097;28;20195;-77
2022/01/18 07:58:13;;;;;;;40.33;27.95;;;;;;;1.83;90.86;101474.19;5013920;28;20227;-77
2022/01/18 08:00:38;;;;;;;61.77;21.83;;;;;;;1.86;91.06;101479.38;5006681;28;20195;-77
2022/01/18 08:03:04;;;;;;;30.37;17.37;;;;;;;1.90;90.74;101472.50;5019262;28;20281;-77
2022/01/18 08:05:29;;;;;;;25.50;17.67;;;;;;;1.93;91.10;101475.09;5009516;28;20215;-77
2022/01/18 08:07:57;;;;;;;26.60;16.90;;;;;;;1.98;90.95;101475.97;5012215;28;20223;-76
2022/01/18 08:10:36;;;;;;;49.33;19.65;;;;;;;2.02;90.82;101472.50;5020351;28;20226;-77
2022/01/18 08:13:05;;;;;;;58.90;19.92;;;;;;;2.08;90.90;101479.44;5023731;28;20205;-77
2022/01/18 08:15:40;;;;;;;92.32;21.88;;;;;;;2.06;90.43;101482.03;5011357;28;20613;-77
2022/01/18 08:18:15;;;;;;;138.98;22.25;;;;;;;2.04;90.14;101482.91;5014756;28;20323;-77
2022/01/18 08:20:56;;;;;;;94.35;23.08;;;;;;;1.99;90.06;101470.78;5032688;28;20199;-77
2022/01/18 08:23:45;;;;;;;;;;;;;;;;;;;;;
2022/01/18 08:26:38;;;;;;;48.78;16.00;;;;;;;1.79;90.03;101479.41;5014235;28;20241;-77
2022/01/18 08:29:14;;;;;;;57.00;16.08;;;;;;;1.71;89.84;101477.63;5019026;28;20246;-76
2022/01/18 08:31:52;;;;;;;62.75;22.30;;;;;;;1.70;90.33;101477.63;5022948;28;20478;-76
2022/01/18 08:34:35;;;;;;;45.22;17.48;;;;;;;1.60;90.27;101476.75;5014658;28;20205;-77
2022/01/18 08:37:11;;;;;;;32.33;13.35;;;;;;;1.59;89.86;101474.13;5018113;28;20761;-77
2022/01/18 08:39:42;;;;;;;60.13;15.20;;;;;;;1.55;90.09;101476.72;5019616;28;20206;-77
2022/01/18 08:42:28;;;;;;;;;;;;;;;;;;;;;
2022/01/18 08:44:59;;;;;;;34.10;14.77;;;;;;;1.62;90.13;101479.31;5023638;28;20214;-77
2022/01/18 08:47:37;;;;;;;41.08;14.88;;;;;;;1.67;90.02;101467.25;5016673;28;20257;-77
2022/01/18 08:50:11;;;;;;;21.13;14.18;;;;;;;1.78;90.05;101473.31;5016814;28;20206;-77
2022/01/18 08:52:40;;;;;;;24.52;12.80;;;;;;;1.89;89.57;101474.25;5018778;28;20249;-77
2022/01/18 08:55:23;;;;;;;17.50;12.95;;;;;;;2.03;89.60;101481.19;5014411;28;20345;-77
2022/01/18 08:57:51;;;;;;;26.00;12.95;;;;;;;2.12;89.19;101473.41;5023577;28;20317;-77
2022/01/18 09:00:18;;;;;;;16.25;11.13;;;;;;;2.17;89.12;101474.28;5011467;28;20264;-77
2022/01/18 09:02:57;;;;;;;19.27;13.68;;;;;;;2.27;88.95;101476.00;5019210;28;20236;-76
2022/01/18 09:05:36;;;;;;;19.10;13.40;;;;;;;2.40;88.64;101462.19;5022037;28;20891;-77
2022/01/18 09:08:13;;;;;;;24.40;14.00;;;;;;;2.67;88.45;101465.59;5014300;28;20242;-77
2022/01/18 09:10:52;;;;;;;15.98;12.48;;;;;;;3.23;88.20;101472.38;5014359;28;20241;-77
2022/01/18 09:13:27;;;;;;;13.80;12.10;;;;;;;4.12;86.66;101458.91;5009820;28;20865;-77
2022/01/18 09:15:58;;;;;;;13.77;10.88;;;;;;;5.16;84.34;101461.41;5007281;28;20685;-77
2022/01/18 09:18:24;;;;;;;18.77;12.40;;;;;;;6.41;80.97;101456.19;5019893;28;20369;-77
2022/01/18 09:20:55;;;;;;;12.77;11.50;;;;;;;7.76;77.05;101446.56;5017067;28;20674;-77
2022/01/18 09:23:26;;;;;;;11.80;10.25;;;;;;;8.92;73.24;101436.72;5019773;28;20237;-77
2022/01/18 09:25:54;;;;;;;10.68;9.57;;;;;;;10.05;69.88;101429.88;5010607;28;20779;-77
2022/01/18 09:28:22;;;;;;;10.80;8.95;;;;;;;11.18;66.61;101430.38;5019137;28;20724;-77
2022/01/18 09:31:00;;;;;;;11.82;10.30;;;;;;;12.13;63.21;101417.94;5006540;28;20770;-77
2022/01/18 09:33:33;;;;;;;11.38;9.43;;;;;;;12.75;61.06;101418.81;5020454;28;20210;-77
2022/01/18 09:36:06;;;;;;;8.80;7.63;;;;;;;13.18;59.44;101416.91;5009609;28;20875;-77
2022/01/18 09:38:32;;;;;;;9.57;8.18;;;;;;;13.07;58.32;101417.41;5012822;28;20261;-77
2022/01/18 09:41:08;;;;;;;9.65;8.63;;;;;;;12.40;58.54;101421.19;5020385;28;20229;-77
2022/01/18 09:43:38;;;;;;;10.35;8.00;;;;;;;11.56;60.60;101427.19;5023403;28;20587;-77
2022/01/18 09:46:11;;;;;;;8.88;7.97;;;;;;;10.80;62.28;101432.63;5022682;28;20265;-77
2022/01/18 09:48:51;;;;;;;9.20;8.07;;;;;;;9.95;64.04;101434.53;4664728;28;10001363;-77
2022/01/18 09:54:30;;;;;;;11.65;10.52;;;;;;;8.80;67.10;101426.56;5008338;28;20663;-77
2022/01/18 09:56:59;;;;;;;7.63;6.90;;;;;;;8.53;67.62;101425.53;5012497;28;20226;-77
2022/01/18 09:59:32;;;;;;;8.30;7.00;;;;;;;8.19;68.08;101429.84;5013386;28;20321;-77
2022/01/18 10:02:02;;;;;;;8.68;6.05;;;;;;;8.15;67.57;101424.72;5008219;28;21053;-77
2022/01/18 10:04:32;;;;;;;7.55;6.38;;;;;;;8.96;65.46;101427.00;5016609;28;20210;-76
2022/01/18 10:07:00;;;;;;;7.65;6.18;;;;;;;10.17;61.78;101413.69;5023861;28;20665;-77
2022/01/18 10:09:35;;;;;;;8.68;8.05;;;;;;;11.15;58.36;101416.44;5009899;28;20222;-77
2022/01/18 10:12:15;;;;;;;6.22;5.72;;;;;;;11.64;56.40;101410.19;5022144;28;20721;-77
2022/01/18 10:15:00;;;;;;;6.50;4.82;;;;;;;11.78;55.08;101404.38;5008342;28;20214;-77
2022/01/18 10:17:42;;;;;;;7.15;4.65;;;;;;;11.87;53.78;101390.03;5027174;28;20614;-77
2022/01/18 10:20:13;;;;;;;5.68;4.90;;;;;;;11.43;54.16;101400.50;5017458;28;20736;-77
2022/01/18 10:22:41;;;;;;;4.82;4.30;;;;;;;10.80;55.18;101397.56;5016690;28;20223;-77
2022/01/18 10:25:26;;;;;;;4.28;3.38;;;;;;;9.93;56.57;101393.50;5021659;28;20203;-77
2022/01/18 10:27:53;;;;;;;6.15;4.00;;;;;;;9.06;58.55;101399.66;5017237;28;20788;-77
2022/01/18 10:30:35;;;;;;;6.47;3.80;;;;;;;8.61;60.17;101393.03;5018158;28;20217;-77
2022/01/18 10:33:11;;;;;;;8.40;4.63;;;;;;;8.39;61.12;101392.72;5014809;28;20481;-77
2022/01/18 10:36:12;;;;;;;7.35;4.03;;;;;;;8.02;61.60;101389.28;5017445;28;20268;-77
2022/01/18 10:38:43;;;;;;;5.70;3.90;;;;;;;7.87;62.72;101387.91;5015605;28;20241;-77
2022/01/18 10:41:31;;;;;;;5.97;3.65;;;;;;;7.66;62.37;101379.66;5017814;28;20301;-77
2022/01/18 10:44:14;;;;;;;4.10;3.10;;;;;;;7.58;63.19;101383.34;5016862;28;20215;-77
2022/01/18 10:46:48;;;;;;;3.72;2.60;;;;;;;7.46;62.57;101381.88;5035445;28;20222;-77
2022/01/18 10:49:31;;;;;;;7.60;3.30;;;;;;;7.42;63.36;101374.97;5017831;28;20207;-76
2022/01/18 10:52:05;;;;;;;3.35;3.00;;;;;;;7.35;63.52;101368.19;5014446;28;20214;-77
2022/01/18 10:54:36;;;;;;;4.07;3.60;;;;;;;7.26;63.11;101370.13;5018166;28;20218;-77
2022/01/18 10:57:06;;;;;;;4.43;3.75;;;;;;;7.24;63.56;101365.81;5015422;28;20223;-77
2022/01/18 10:59:31;;;;;;;6.18;3.90;;;;;;;7.19;63.37;101362.44;5016497;28;20934;-77
2022/01/18 11:02:10;;;;;;;4.37;3.03;;;;;;;7.24;63.92;101363.19;5016020;28;20360;-77
2022/01/18 11:04:36;;;;;;;5.38;3.08;;;;;;;7.27;64.29;101363.13;5016774;28;20423;-77
2022/01/18 11:07:03;;;;;;;4.10;3.67;;;;;;;7.31;64.14;101349.06;5016612;28;20714;-77
2022/01/18 11:09:30;;;;;;;3.40;3.10;;;;;;;7.31;63.82;101349.94;5018193;28;20254;-77
2022/01/18 11:11:55;;;;;;;5.65;2.92;;;;;;;7.34;63.50;101341.16;5015872;28;20206;-78
2022/01/18 11:14:22;;;;;;;3.33;2.97;;;;;;;7.32;63.24;101343.84;5016849;28;20194;-77
2022/01/18 11:16:49;;;;;;;3.97;2.95;;;;;;;7.38;63.26;101349.81;5016301;28;20203;-78
2022/01/18 11:19:39;;;;;;;3.55;3.25;;;;;;;7.38;63.65;101344.59;5015387;28;20207;-78
2022/01/18 11:22:07;;;;;;;3.60;3.20;;;;;;;7.39;63.48;101347.16;5015782;28;20280;-78
2022/01/18 11:24:36;;;;;;;5.60;3.97;;;;;;;7.43;63.46;101340.13;5015115;28;20712;-77
2022/01/18 11:27:03;;;;;;;4.03;2.45;;;;;;;7.41;63.22;101341.91;5017258;28;20258;-77
2022/01/18 11:29:31;;;;;;;5.10;3.35;;;;;;;7.38;63.36;101342.84;5015494;28;20193;-77
2022/01/18 11:31:57;;;;;;;7.00;3.85;;;;;;;7.44;63.20;101339.22;5016079;28;20217;-78
2022/01/18 11:34:55;;;;;;;8.50;4.57;;;;;;;7.46;62.74;101346.13;5016206;28;20260;-78
2022/01/18 11:37:41;;;;;;;3.13;2.25;;;;;;;7.51;62.59;101346.88;5015936;28;20705;-78
2022/01/18 11:40:15;;;;;;;3.45;2.80;;;;;;;7.51;62.45;101338.19;5016538;28;20201;-78
2022/01/18 11:42:50;;;;;;;4.03;3.17;;;;;;;7.50;62.41;101333.84;5017405;28;20230;-77
2022/01/18 11:45:24;;;;;;;3.97;3.20;;;;;;;7.54;62.51;101338.13;5016741;28;20258;-77
2022/01/18 11:48:12;;;;;;;5.28;3.47;;;;;;;7.56;62.43;101336.34;5014551;28;20231;-77
2022/01/18 11:50:42;;;;;;;3.30;3.00;;;;;;;7.59;62.36;101332.75;5016455;28;20215;-77
2022/01/18 11:53:38;;;;;;;4.00;2.83;;;;;;;7.63;62.43;101314.34;5014916;28;20246;-76
2022/01/18 11:56:05;;;;;;;3.20;2.75;;;;;;;7.67;62.12;101318.63;5006217;28;20683;-78
2022/01/18 11:58:30;;;;;;;4.10;2.83;;;;;;;7.63;61.72;101306.50;5015877;28;20230;-78
2022/01/18 12:01:01;;;;;;;4.13;2.63;;;;;;;7.58;61.82;101312.75;5015719;28;20218;-78
2022/01/18 12:03:29;;;;;;;3.58;2.45;;;;;;;7.61;62.12;101316.13;5018010;28;20277;-77
2022/01/18 12:06:00;;;;;;;4.95;3.55;;;;;;;7.61;62.17;101315.28;5020363;28;20214;-78
2022/01/18 12:08:33;;;;;;;3.20;2.90;;;;;;;7.65;62.12;101304.72;5019540;28;20249;-78
2022/01/18 12:11:00;;;;;;;5.35;3.95;;;;;;;7.70;62.39;101310.69;5018904;28;20214;-78
2022/01/18 12:13:32;;;;;;;4.20;3.35;;;;;;;7.79;62.01;101308.75;5022330;28;20207;-78
2022/01/18 12:16:00;;;;;;;5.07;3.60;;;;;;;7.80;61.57;101295.63;5017515;28;20203;-78
2022/01/18 12:18:28;;;;;;;4.20;2.88;;;;;;;7.83;61.57;101297.28;5021241;28;20385;-78
2022/01/18 12:21:00;;;;;;;5.32;3.20;;;;;;;7.81;61.31;101291.25;5019807;28;20217;-78
2022/01/18 12:23:28;;;;;;;5.45;3.28;;;;;;;7.81;61.48;101292.13;5019269;28;20230;-77
2022/01/18 12:26:03;;;;;;;4.15;2.80;;;;;;;7.79;60.84;101295.66;5017029;28;20242;-77
2022/01/18 12:34:28;;;;;;;5.13;3.08;;;;;;;7.81;60.83;101286.88;5019187;28;20219;-78
2022/01/18 12:37:13;;;;;;;4.07;3.20;;;;;;;7.84;60.62;101275.50;5018660;28;20230;-78
2022/01/18 12:45:29;;;;;;;3.95;3.20;;;;;;;7.84;60.95;101283.34;5012995;28;20225;-79
2022/01/18 12:47:58;;;;;;;3.92;3.53;;;;;;;7.82;60.99;101287.75;5020690;28;20234;-78
2022/01/18 12:50:44;;;;;;;4.15;3.65;;;;;;;7.73;61.38;101292.31;5020493;28;20241;-78
2022/01/18 12:53:18;;;;;;;8.82;8.02;;;;;;;7.65;61.43;101277.72;5020448;28;20209;-78
2022/01/18 12:55:57;;;;;;;4.05;3.40;;;;;;;7.56;61.28;101283.16;5035106;28;20216;-77
2022/01/18 12:58:38;;;;;;;4.82;3.72;;;;;;;7.41;61.65;101284.38;5025283;28;20274;-77
2022/01/18 13:01:16;;;;;;;4.60;3.63;;;;;;;7.35;61.57;101284.53;5020522;28;20778;-77